createdAt,value
2023-11-01T00:01:34.793Z,11.38
2023-11-01T00:04:01.774Z,11.38
2023-11-01T00:06:28.661Z,11.17
2023-11-01T00:08:57.117Z,11.23
2023-11-01T00:11:24.187Z,11.21
2023-11-01T00:13:51.167Z,11.26
2023-11-01T00:16:17.897Z,11.24
2023-11-01T00:18:44.544Z,11.37
2023-11-01T00:21:11.885Z,11.29
2023-11-01T00:23:38.711Z,11.23
2023-11-01T00:26:07.511Z,11.34
2023-11-01T00:28:35.276Z,11.20
2023-11-01T00:31:02.364Z,11.55
2023-11-01T00:33:29.090Z,11.38
2023-11-01T00:35:55.921Z,11.31
2023-11-01T00:38:22.759Z,11.37
2023-11-01T00:40:49.468Z,11.24
2023-11-01T00:43:16.285Z,11.59
2023-11-01T00:45:43.076Z,11.48
2023-11-01T00:48:09.880Z,11.60
2023-11-01T00:50:36.589Z,11.87
2023-11-01T00:53:03.406Z,11.97
2023-11-01T00:55:30.065Z,11.82
2023-11-01T00:57:56.756Z,12.33
2023-11-01T01:00:23.396Z,12.27
2023-11-01T01:02:50.382Z,12.23
2023-11-01T01:05:17.422Z,12.45
2023-11-01T01:07:44.245Z,11.72
2023-11-01T01:10:10.966Z,11.64
2023-11-01T01:12:37.632Z,11.94
2023-11-01T01:15:04.665Z,12.20
2023-11-01T01:17:31.459Z,12.32
2023-11-01T01:19:58.241Z,12.55
2023-11-01T01:22:24.925Z,12.82
2023-11-01T01:24:51.618Z,12.79
2023-11-01T01:27:19.507Z,12.86
2023-11-01T01:29:46.231Z,13.11
2023-11-01T01:32:12.963Z,13.54
2023-11-01T01:34:39.684Z,13.98
2023-11-01T01:37:06.378Z,13.91
2023-11-01T01:39:33.121Z,13.86
2023-11-01T01:41:59.904Z,13.89
2023-11-01T01:44:26.670Z,13.92
2023-11-01T01:46:53.412Z,14.18
2023-11-01T01:49:22.200Z,14.11
2023-11-01T01:51:50.557Z,14.01
2023-11-01T01:54:17.386Z,13.99
2023-11-01T01:56:44.114Z,13.89
2023-11-01T01:59:10.903Z,13.64
2023-11-01T02:01:42.838Z,13.48
2023-11-01T02:04:12.062Z,13.57
2023-11-01T02:06:38.679Z,13.50
2023-11-01T02:09:06.692Z,13.32
2023-11-01T02:11:36.632Z,13.15
2023-11-01T02:14:03.505Z,12.92
2023-11-01T02:16:30.152Z,12.93
2023-11-01T02:18:56.914Z,12.79
2023-11-01T02:21:23.633Z,12.71
2023-11-01T02:23:50.654Z,12.73
2023-11-01T02:26:17.470Z,12.62
2023-11-01T02:28:44.333Z,12.84
2023-11-01T02:31:11.041Z,12.86
2023-11-01T02:33:37.718Z,12.93
2023-11-01T02:36:04.736Z,13.03
2023-11-01T02:38:31.433Z,13.03
2023-11-01T02:40:58.203Z,13.00
2023-11-01T02:43:24.904Z,13.13
2023-11-01T02:45:51.592Z,13.32
2023-11-01T02:48:18.409Z,13.32
2023-11-01T02:50:45.904Z,13.50
2023-11-01T02:53:12.733Z,13.39
2023-11-01T02:55:39.856Z,13.41
2023-11-01T02:58:06.575Z,13.41
2023-11-01T03:00:33.198Z,13.50
2023-11-01T03:03:00.152Z,13.83
2023-11-01T03:05:29.213Z,13.70
2023-11-01T03:07:56.198Z,13.71
2023-11-01T03:10:22.941Z,13.77
2023-11-01T03:12:49.712Z,13.87
2023-11-01T03:15:16.448Z,13.59
2023-11-01T03:17:43.804Z,13.34
2023-11-01T03:20:12.321Z,13.41
2023-11-01T03:22:39.268Z,13.16
2023-11-01T03:25:06.520Z,13.10
2023-11-01T03:27:33.404Z,12.70
2023-11-01T03:30:00.250Z,12.82
2023-11-01T03:32:27.100Z,12.60
2023-11-01T03:34:53.960Z,12.43
2023-11-01T03:37:20.777Z,12.49
2023-11-01T03:39:47.630Z,12.21
2023-11-01T03:42:14.379Z,12.35
2023-11-01T03:44:41.118Z,12.08
2023-11-01T03:47:08.227Z,12.09
2023-11-01T03:49:34.956Z,12.00
2023-11-01T03:52:02.776Z,11.82
2023-11-01T03:54:30.315Z,11.79
2023-11-01T03:56:57.028Z,11.79
2023-11-01T03:59:23.894Z,11.83
2023-11-01T04:01:50.881Z,11.84
2023-11-01T04:04:17.889Z,12.06
2023-11-01T04:06:44.756Z,12.01
2023-11-01T04:09:14.225Z,12.12
2023-11-01T04:11:42.379Z,12.11
2023-11-01T04:14:09.115Z,12.14
2023-11-01T04:16:35.876Z,11.98
2023-11-01T04:19:03.578Z,12.10
2023-11-01T04:21:30.398Z,11.98
2023-11-01T04:23:57.240Z,11.99
2023-11-01T04:26:23.944Z,11.83
2023-11-01T04:28:50.614Z,11.85
2023-11-01T04:31:18.485Z,11.90
2023-11-01T04:33:45.336Z,11.88
2023-11-01T04:36:12.141Z,12.16
2023-11-01T04:38:39.653Z,12.08
2023-11-01T04:41:10.836Z,12.05
2023-11-01T04:43:38.097Z,12.11
2023-11-01T04:46:06.169Z,12.32
2023-11-01T04:48:33.175Z,12.23
2023-11-01T04:51:01.617Z,12.19
2023-11-01T04:53:29.167Z,12.02
2023-11-01T04:55:56.182Z,11.83
2023-11-01T04:58:23.573Z,11.88
2023-11-01T05:00:51.150Z,11.57
2023-11-01T05:03:18.374Z,11.54
2023-11-01T05:05:45.788Z,11.48
2023-11-01T05:08:12.652Z,11.35
2023-11-01T05:10:39.497Z,11.36
2023-11-01T05:13:07.037Z,11.46
2023-11-01T05:15:38.087Z,11.56
2023-11-01T05:18:05.177Z,11.42
2023-11-01T05:20:32.103Z,11.37
2023-11-01T05:22:58.898Z,11.32
2023-11-01T05:25:30.057Z,11.28
2023-11-01T05:27:57.650Z,11.34
2023-11-01T05:30:24.515Z,11.49
2023-11-01T05:32:51.563Z,11.31
2023-11-01T05:35:18.721Z,11.23
2023-11-01T05:37:45.664Z,11.20
2023-11-01T05:40:15.889Z,11.30
2023-11-01T05:42:43.473Z,10.85
2023-11-01T05:45:10.662Z,11.06
2023-11-01T05:47:37.658Z,11.09
2023-11-01T05:50:09.284Z,11.33
2023-11-01T05:52:36.296Z,11.38
2023-11-01T05:55:11.200Z,11.61
2023-11-01T05:57:49.690Z,11.73
2023-11-01T06:00:18.825Z,11.74
2023-11-01T06:02:45.685Z,11.61
2023-11-01T06:05:12.493Z,11.70
2023-11-01T06:07:39.232Z,11.75
2023-11-01T06:10:07.755Z,11.64
2023-11-01T06:12:34.461Z,11.83
2023-11-01T06:15:01.180Z,11.76
2023-11-01T06:17:27.928Z,12.01
2023-11-01T06:19:54.639Z,12.05
2023-11-01T06:22:21.346Z,12.06
2023-11-01T06:24:48.005Z,12.21
2023-11-01T06:27:14.790Z,12.23
2023-11-01T06:29:45.179Z,12.27
2023-11-01T06:32:12.585Z,12.39
2023-11-01T06:34:39.266Z,12.63
2023-11-01T06:37:06.700Z,12.91
2023-11-01T06:39:33.394Z,12.84
2023-11-01T06:42:00.199Z,13.01
2023-11-01T06:44:27.275Z,13.25
2023-11-01T06:46:54.224Z,13.04
2023-11-01T06:49:21.439Z,13.11
2023-11-01T06:51:48.228Z,12.93
2023-11-01T06:54:14.966Z,13.10
2023-11-01T06:56:46.365Z,13.13
2023-11-01T06:59:14.430Z,13.45
2023-11-01T07:01:41.379Z,13.41
2023-11-01T07:04:08.574Z,13.55
2023-11-01T07:06:35.256Z,13.68
2023-11-01T07:09:02.042Z,13.79
2023-11-01T07:11:30.176Z,13.78
2023-11-01T07:13:57.138Z,13.96
2023-11-01T07:16:23.865Z,14.16
2023-11-01T07:18:51.125Z,14.14
2023-11-01T07:21:17.984Z,14.12
2023-11-01T07:23:45.279Z,14.10
2023-11-01T07:26:12.294Z,14.24
2023-11-01T07:28:38.936Z,14.14
2023-11-01T07:31:05.672Z,14.68
2023-11-01T07:33:32.450Z,14.78
2023-11-01T07:35:59.215Z,14.86
2023-11-01T07:38:25.915Z,14.87
2023-11-01T07:40:52.702Z,15.18
2023-11-01T07:43:19.442Z,15.14
2023-11-01T07:45:46.161Z,15.55
2023-11-01T07:48:13.340Z,15.66
2023-11-01T07:50:41.672Z,15.74
2023-11-01T07:53:08.485Z,15.77
2023-11-01T07:55:35.603Z,15.87
2023-11-01T07:58:02.270Z,16.25
2023-11-01T08:00:28.924Z,16.16
2023-11-01T08:02:55.859Z,16.20
2023-11-01T08:05:22.965Z,16.17
2023-11-01T08:07:50.584Z,16.59
2023-11-01T08:10:17.726Z,16.64
2023-11-01T08:12:44.692Z,16.87
2023-11-01T08:15:12.868Z,16.83
2023-11-01T08:17:39.871Z,16.66
2023-11-01T08:20:08.124Z,16.31
2023-11-01T08:22:36.173Z,16.33
2023-11-01T08:25:03.065Z,16.34
2023-11-01T08:27:29.820Z,16.32
2023-11-01T08:29:56.624Z,16.01
2023-11-01T08:32:23.438Z,16.20
2023-11-01T08:34:50.556Z,16.11
2023-11-01T08:37:17.314Z,16.53
2023-11-01T08:39:44.141Z,16.28
2023-11-01T08:42:10.911Z,16.44
2023-11-01T08:44:37.611Z,16.76
2023-11-01T08:47:08.560Z,16.84
2023-11-01T08:49:36.335Z,16.80
2023-11-01T08:52:03.171Z,17.07
2023-11-01T08:54:29.789Z,17.23
2023-11-01T08:56:56.625Z,17.09
2023-11-01T08:59:23.544Z,17.15
2023-11-01T09:01:50.766Z,16.92
2023-11-01T09:04:17.608Z,16.95
2023-11-01T09:06:44.332Z,17.08
2023-11-01T09:09:11.156Z,17.26
2023-11-01T09:11:38.203Z,17.26
2023-11-01T09:14:05.019Z,17.74
2023-11-01T09:16:31.824Z,17.36
2023-11-01T09:18:59.180Z,17.46
2023-11-01T09:21:25.913Z,17.59
2023-11-01T09:23:52.604Z,17.60
2023-11-01T09:26:19.470Z,17.61
2023-11-01T09:28:52.503Z,17.53
2023-11-01T09:31:19.216Z,17.93
2023-11-01T09:33:50.286Z,17.70
2023-11-01T09:36:17.815Z,17.81
2023-11-01T09:38:44.507Z,17.83
2023-11-01T09:41:11.291Z,17.75
2023-11-01T09:59:34.171Z,18.70
2023-11-01T10:02:01.481Z,18.93
2023-11-01T10:04:28.739Z,18.98
2023-11-01T10:06:56.200Z,19.02
2023-11-01T10:09:22.953Z,19.32
2023-11-01T10:11:49.656Z,18.80
2023-11-01T10:14:29.328Z,19.47
2023-11-01T10:16:57.054Z,19.37
2023-11-01T10:19:24.682Z,19.33
2023-11-01T10:21:54.690Z,19.17
2023-11-01T10:24:26.507Z,19.40
2023-11-01T10:26:53.741Z,19.56
2023-11-01T10:29:20.682Z,19.63
2023-11-01T10:31:59.998Z,19.26
2023-11-01T10:34:30.660Z,19.67
2023-11-01T10:36:58.718Z,19.80
2023-11-01T10:39:26.227Z,20.07
2023-11-01T10:41:56.256Z,20.23
2023-11-01T10:44:23.795Z,19.76
2023-11-01T10:46:51.198Z,19.80
2023-11-01T10:49:18.041Z,20.06
2023-11-01T10:51:45.053Z,19.58
2023-11-01T10:54:12.828Z,19.93
2023-11-01T10:56:39.955Z,19.61
2023-11-01T10:59:21.902Z,20.07
2023-11-01T11:01:53.508Z,20.06
2023-11-01T11:04:55.968Z,19.54
2023-11-01T11:07:34.530Z,19.88
2023-11-01T11:10:26.172Z,19.73
2023-11-01T11:13:11.665Z,20.15
2023-11-01T11:16:08.145Z,20.25
2023-11-01T11:18:44.808Z,20.42
2023-11-01T11:21:46.925Z,19.74
2023-11-01T11:24:45.654Z,20.68
2023-11-01T11:27:46.508Z,20.21
2023-11-01T11:30:13.311Z,21.08
2023-11-01T11:32:40.127Z,20.96
2023-11-01T11:35:19.660Z,20.32
2023-11-01T11:37:46.303Z,19.80
2023-11-01T11:40:13.609Z,20.24
2023-11-01T11:42:43.289Z,20.77
2023-11-01T11:45:10.077Z,21.27
2023-11-01T11:47:36.958Z,20.70
2023-11-01T11:50:10.378Z,20.10
2023-11-01T11:52:39.784Z,19.56
2023-11-01T11:55:06.699Z,20.03
2023-11-01T11:57:33.356Z,20.24
2023-11-01T12:00:09.042Z,20.06
2023-11-01T12:02:35.926Z,20.16
2023-11-01T12:05:04.037Z,20.43
2023-11-01T12:07:30.846Z,20.03
2023-11-01T12:09:57.698Z,20.12
2023-11-01T12:12:27.659Z,19.94
2023-11-01T12:15:01.523Z,19.82
2023-11-01T12:17:28.765Z,19.74
2023-11-01T12:19:55.550Z,19.81
2023-11-01T12:22:22.314Z,19.77
2023-11-01T12:24:49.781Z,20.18
2023-11-01T12:27:19.868Z,19.83
2023-11-01T12:29:48.460Z,20.15
2023-11-01T12:32:25.123Z,20.23
2023-11-01T12:34:51.880Z,20.22
2023-11-01T12:37:24.267Z,19.87
2023-11-01T12:40:00.697Z,19.88
2023-11-01T12:42:29.248Z,19.52
2023-11-01T12:44:56.105Z,19.37
2023-11-01T12:47:43.439Z,19.60
2023-11-01T12:50:11.233Z,19.46
2023-11-01T12:52:39.813Z,19.68
2023-11-01T12:55:15.342Z,20.13
2023-11-01T12:57:47.923Z,19.81
2023-11-01T13:00:17.039Z,19.60
2023-11-01T13:02:44.292Z,19.75
2023-11-01T13:05:13.968Z,19.80
2023-11-01T13:07:40.993Z,19.59
2023-11-01T13:10:10.850Z,19.45
2023-11-01T13:12:39.734Z,19.78
2023-11-01T13:15:07.321Z,20.69
2023-11-01T13:17:34.185Z,20.51
2023-11-01T13:20:00.931Z,20.53
2023-11-01T13:22:27.649Z,20.19
2023-11-01T13:24:54.341Z,20.96
2023-11-01T13:27:20.966Z,20.44
2023-11-01T13:29:49.606Z,20.40
2023-11-01T13:32:16.563Z,20.91
2023-11-01T13:34:43.349Z,20.63
2023-11-01T13:37:09.992Z,20.48
2023-11-01T13:39:36.805Z,20.06
2023-11-01T13:42:03.655Z,19.85
2023-11-01T13:44:30.420Z,19.60
2023-11-01T13:46:57.160Z,19.33
2023-11-01T13:49:23.954Z,19.21
2023-11-01T13:51:51.133Z,19.27
2023-11-01T13:54:17.870Z,18.83
2023-11-01T13:56:44.822Z,18.49
2023-11-01T13:59:11.493Z,18.58
2023-11-01T14:01:38.229Z,18.42
2023-11-01T14:04:05.321Z,18.40
2023-11-01T14:06:32.188Z,18.45
2023-11-01T14:08:58.936Z,18.32
2023-11-01T14:11:26.108Z,18.57
2023-11-01T14:13:53.868Z,18.50
2023-11-01T14:16:20.618Z,18.53
2023-11-01T14:18:47.440Z,18.25
2023-11-01T14:21:14.332Z,18.29
2023-11-01T14:23:41.162Z,18.10
2023-11-01T14:26:08.746Z,17.87
2023-11-01T14:28:35.530Z,17.47
2023-11-01T14:31:02.307Z,16.99
2023-11-01T14:33:29.252Z,16.64
2023-11-01T14:35:56.235Z,16.94
2023-11-01T14:38:23.139Z,17.07
2023-11-01T14:40:49.808Z,17.34
2023-11-01T14:43:18.500Z,17.35
2023-11-01T14:45:45.500Z,17.34
2023-11-01T14:48:12.424Z,16.88
2023-11-01T14:50:39.373Z,16.86
2023-11-01T14:53:06.077Z,16.70
2023-11-01T14:55:32.852Z,16.78
2023-11-01T14:57:59.565Z,16.64
2023-11-01T15:00:26.351Z,16.56
2023-11-01T15:02:53.076Z,16.53
2023-11-01T15:05:20.195Z,16.54
2023-11-01T15:07:47.174Z,16.32
2023-11-01T15:10:14.299Z,16.45
2023-11-01T15:12:41.318Z,16.27
2023-11-01T15:15:09.091Z,16.00
2023-11-01T15:17:35.914Z,15.79
2023-11-01T15:20:02.746Z,15.65
2023-11-01T15:22:29.476Z,15.46
2023-11-01T15:24:56.185Z,15.57
2023-11-01T15:27:25.807Z,15.55
2023-11-01T15:29:53.135Z,15.34
2023-11-01T15:32:20.124Z,15.27
2023-11-01T15:34:49.625Z,15.19
2023-11-01T15:37:16.479Z,15.05
2023-11-01T15:39:43.253Z,15.07
2023-11-01T15:42:10.684Z,15.15
2023-11-01T15:44:37.553Z,15.03
2023-11-01T15:47:04.601Z,14.98
2023-11-01T15:49:31.404Z,14.98
2023-11-01T15:52:01.274Z,14.82
2023-11-01T15:54:29.450Z,14.60
2023-11-01T15:56:56.174Z,14.42
2023-11-01T15:59:23.228Z,14.50
2023-11-01T16:01:51.234Z,14.36
2023-11-01T16:04:18.348Z,14.04
2023-11-01T16:06:45.205Z,13.82
2023-11-01T16:09:14.918Z,13.95
2023-11-01T16:11:41.834Z,14.18
2023-11-01T16:14:09.440Z,14.29
2023-11-01T16:16:36.350Z,14.11
2023-11-01T16:19:02.987Z,14.07
2023-11-01T16:21:29.783Z,14.01
2023-11-01T16:23:56.641Z,13.93
2023-11-01T16:26:23.397Z,13.73
2023-11-01T16:28:50.349Z,13.65
2023-11-01T16:31:17.077Z,13.44
2023-11-01T16:33:44.563Z,13.47
2023-11-01T16:36:11.564Z,13.13
2023-11-01T16:38:38.680Z,13.29
2023-11-01T16:41:05.459Z,13.38
2023-11-01T16:43:32.291Z,13.29
2023-11-01T16:46:00.352Z,13.26
2023-11-01T16:48:27.362Z,13.04
2023-11-01T16:50:54.378Z,13.05
2023-11-01T16:53:21.086Z,13.10
2023-11-01T16:55:47.934Z,13.11
2023-11-01T17:00:42.390Z,12.89
2023-11-01T17:03:09.540Z,12.75
2023-11-01T17:05:36.891Z,12.58
2023-11-01T17:08:03.995Z,12.37
2023-11-01T17:10:30.785Z,12.30
2023-11-01T17:12:57.439Z,12.20
2023-11-01T17:15:25.082Z,12.20
2023-11-01T17:17:53.324Z,11.79
2023-11-01T17:20:20.208Z,11.52
2023-11-01T17:22:48.950Z,11.36
2023-11-01T17:25:59.258Z,11.48
2023-11-01T17:28:32.924Z,11.09
2023-11-01T17:31:02.614Z,10.53
2023-11-01T17:33:32.586Z,10.80
2023-11-01T17:36:06.985Z,11.07
2023-11-01T17:38:38.250Z,10.89
2023-11-01T17:41:08.318Z,10.89
2023-11-01T17:43:48.958Z,11.03
2023-11-01T17:46:19.321Z,11.10
2023-11-01T17:48:46.751Z,10.68
2023-11-01T17:51:16.262Z,10.36
2023-11-01T17:53:43.007Z,10.34
2023-11-01T17:56:09.760Z,10.40
2023-11-01T17:58:36.752Z,10.43
2023-11-01T18:01:04.929Z,10.63
2023-11-01T18:03:33.714Z,10.34
2023-11-01T18:06:01.262Z,9.62
2023-11-01T18:08:34.718Z,9.73
2023-11-01T18:11:04.376Z,9.89
2023-11-01T18:13:37.290Z,9.61
2023-11-01T18:16:05.891Z,9.35
2023-11-01T18:18:52.111Z,9.69
2023-11-01T18:21:28.411Z,9.57
2023-11-01T18:23:59.841Z,9.50
2023-11-01T18:26:33.395Z,9.53
2023-11-01T18:29:06.662Z,9.92
2023-11-01T18:31:37.168Z,9.76
2023-11-01T18:34:05.012Z,9.81
2023-11-01T18:36:53.940Z,10.01
2023-11-01T18:39:21.569Z,9.72
2023-11-01T18:41:48.412Z,9.12
2023-11-01T18:44:27.957Z,9.19
2023-11-01T18:46:55.955Z,9.20
2023-11-01T18:49:34.627Z,9.33
2023-11-01T18:52:01.941Z,9.22
2023-11-01T18:54:41.499Z,9.35
2023-11-01T18:57:09.780Z,9.21
2023-11-01T18:59:36.758Z,9.27
2023-11-01T19:02:04.524Z,9.50
2023-11-01T19:04:33.004Z,9.08
2023-11-01T19:06:59.721Z,9.11
2023-11-01T19:09:26.483Z,9.04
2023-11-01T19:11:53.274Z,9.11
2023-11-01T19:14:20.361Z,9.09
2023-11-01T19:16:47.319Z,9.04
2023-11-01T19:19:14.198Z,9.16
2023-11-01T19:21:41.079Z,8.91
2023-11-01T19:24:07.885Z,8.86
2023-11-01T19:26:34.675Z,9.04
2023-11-01T19:29:01.461Z,9.10
2023-11-01T19:31:28.487Z,8.94
2023-11-01T19:33:55.978Z,8.61
2023-11-01T19:36:24.133Z,8.74
2023-11-01T19:38:50.948Z,8.34
2023-11-01T19:41:17.993Z,8.57
2023-11-01T19:43:44.840Z,8.36
2023-11-01T19:46:11.597Z,8.35
2023-11-01T19:48:38.605Z,8.14
2023-11-01T19:51:07.559Z,8.05
2023-11-01T19:53:34.535Z,8.05
2023-11-01T19:56:01.219Z,8.10
2023-11-01T19:58:28.014Z,8.10
2023-11-01T20:00:54.720Z,7.91
2023-11-01T20:03:21.631Z,8.06
2023-11-01T20:05:48.444Z,8.13
2023-11-01T20:08:15.210Z,8.22
2023-11-01T20:10:41.848Z,8.19
2023-11-01T20:13:08.786Z,8.01
2023-11-01T20:15:35.577Z,8.10
2023-11-01T20:18:02.587Z,8.22
2023-11-01T20:20:29.684Z,8.38
2023-11-01T20:22:58.307Z,8.43
2023-11-01T20:25:25.279Z,8.06
2023-11-01T20:27:52.105Z,8.21
2023-11-01T20:30:18.827Z,8.40
2023-11-01T20:32:45.749Z,8.25
2023-11-01T20:35:12.752Z,8.33
2023-11-01T20:37:39.479Z,8.50
2023-11-01T20:40:07.230Z,8.75
2023-11-01T20:42:34.066Z,8.58
2023-11-01T20:45:01.210Z,8.51
2023-11-01T20:47:28.043Z,8.56
2023-11-01T20:49:54.844Z,8.35
2023-11-01T20:52:21.698Z,8.44
2023-11-01T20:55:02.297Z,8.37
2023-11-01T20:57:29.963Z,8.41
2023-11-01T20:59:56.936Z,8.44
2023-11-01T21:02:23.754Z,8.34
2023-11-01T21:04:50.602Z,8.35
2023-11-01T21:07:18.175Z,8.13
2023-11-01T21:09:46.216Z,8.25
2023-11-01T21:12:13.057Z,8.15
2023-11-01T21:14:40.126Z,8.33
2023-11-01T21:17:09.787Z,7.94
2023-11-01T21:19:36.614Z,7.70
2023-11-01T21:22:03.564Z,7.91
2023-11-01T21:24:30.758Z,7.74
2023-11-01T21:26:58.036Z,7.88
2023-11-01T21:29:24.830Z,7.68
2023-11-01T21:31:51.650Z,7.70
2023-11-01T21:34:18.575Z,7.77
2023-11-01T21:36:45.457Z,7.62
2023-11-01T21:39:12.255Z,7.82
2023-11-01T21:41:40.147Z,7.86
2023-11-01T21:44:08.593Z,7.42
2023-11-01T21:46:36.583Z,7.67
2023-11-01T21:49:08.073Z,8.20
2023-11-01T21:51:34.884Z,8.02
2023-11-01T21:54:03.379Z,7.76
2023-11-01T21:56:33.179Z,7.96
2023-11-01T21:59:09.429Z,7.96
2023-11-01T22:01:36.352Z,8.03
2023-11-01T22:04:21.196Z,7.90
2023-11-01T22:06:49.548Z,7.84
2023-11-01T22:09:17.267Z,7.53
2023-11-01T22:11:49.194Z,7.65
2023-11-01T22:14:31.190Z,7.73
2023-11-01T22:16:59.609Z,7.92
2023-11-01T22:19:34.079Z,7.82
2023-11-01T22:22:09.085Z,7.60
2023-11-01T22:24:37.616Z,7.48
2023-11-01T22:27:10.183Z,7.68
2023-11-01T22:29:50.786Z,8.01
2023-11-01T22:32:21.858Z,7.89
2023-11-01T22:34:48.740Z,7.88
2023-11-01T22:37:16.879Z,8.04
2023-11-01T22:39:45.405Z,7.99
2023-11-01T22:42:14.052Z,7.84
2023-11-01T22:44:46.804Z,7.82
2023-11-01T22:47:14.207Z,7.39
2023-11-01T22:49:41.451Z,7.26
2023-11-01T22:52:08.444Z,7.38
2023-11-01T22:54:35.537Z,7.51
2023-11-01T22:57:02.295Z,7.51
2023-11-01T22:59:29.087Z,7.48
2023-11-01T23:01:58.581Z,7.31
2023-11-01T23:04:25.636Z,7.47
2023-11-01T23:06:52.660Z,7.57
2023-11-01T23:09:19.631Z,7.73
2023-11-01T23:11:46.376Z,7.67
2023-11-01T23:14:13.076Z,7.69
2023-11-01T23:16:40.535Z,7.71
2023-11-01T23:19:07.562Z,7.70
2023-11-01T23:21:34.451Z,7.70
2023-11-01T23:24:01.890Z,8.09
2023-11-01T23:26:55.213Z,7.76
2023-11-01T23:29:31.781Z,7.55
2023-11-01T23:31:59.107Z,7.57
2023-11-01T23:34:40.930Z,7.66
2023-11-01T23:37:34.905Z,7.74
2023-11-01T23:40:04.339Z,7.69
2023-11-01T23:42:34.438Z,7.83
2023-11-01T23:45:01.963Z,7.75
2023-11-01T23:47:51.219Z,7.89
2023-11-01T23:53:24.297Z,7.91
2023-11-01T23:55:53.140Z,8.05
2023-11-01T23:58:36.294Z,8.15
